createdAt,value
2023-03-16T00:01:40.384Z,100689.31
2023-03-16T00:07:02.213Z,100690.88
2023-03-16T00:12:24.053Z,100685.56
2023-03-16T00:17:45.968Z,100700.78
2023-03-16T00:23:07.802Z,100704.22
2023-03-16T00:28:31.540Z,100716.81
2023-03-16T00:33:53.618Z,100700.50
2023-03-16T00:39:15.452Z,100714.91
2023-03-16T00:44:37.945Z,100715.69
2023-03-16T00:50:01.260Z,100729.28
2023-03-16T00:55:23.141Z,100725.78
2023-03-16T01:00:45.026Z,100724.06
2023-03-16T01:06:09.395Z,100730.84
2023-03-16T01:11:31.480Z,100729.91
2023-03-16T01:16:53.365Z,100734.81
2023-03-16T01:22:15.788Z,100725.50
2023-03-16T01:27:37.716Z,100738.94
2023-03-16T01:32:59.628Z,100731.09
2023-03-16T01:38:22.305Z,100738.75
2023-03-16T01:43:44.289Z,100743.75
2023-03-16T01:49:12.312Z,100753.00
2023-03-16T01:54:57.172Z,100760.53
2023-03-16T02:00:20.974Z,100760.50
2023-03-16T02:06:08.684Z,100757.13
2023-03-16T02:11:30.571Z,100756.19
2023-03-16T02:16:52.927Z,100763.78
2023-03-16T02:22:14.922Z,100750.94
2023-03-16T02:28:03.755Z,100768.75
2023-03-16T02:33:26.397Z,100779.72
2023-03-16T02:38:48.328Z,100781.34
2023-03-16T02:44:18.140Z,100790.50
2023-03-16T02:49:43.676Z,100785.38
2023-03-16T02:55:06.884Z,100787.81
2023-03-16T03:00:29.161Z,100793.78
2023-03-16T03:05:51.152Z,100798.78
2023-03-16T03:11:13.023Z,100798.69
2023-03-16T03:16:34.925Z,100806.22
2023-03-16T03:21:56.857Z,100815.41
2023-03-16T03:27:19.657Z,100818.78
2023-03-16T03:32:42.057Z,100817.75
2023-03-16T03:38:03.980Z,100836.47
2023-03-16T03:43:25.962Z,100839.75
2023-03-16T03:48:47.845Z,100839.59
2023-03-16T03:54:10.274Z,100857.53
2023-03-16T03:59:32.344Z,100857.50
2023-03-16T04:04:54.213Z,100854.88
2023-03-16T04:10:16.110Z,100847.84
2023-03-16T04:15:38.001Z,100857.34
2023-03-16T04:20:59.824Z,100870.06
2023-03-16T04:26:22.207Z,100858.00
2023-03-16T04:31:44.836Z,100857.13
2023-03-16T04:37:06.774Z,100856.22
2023-03-16T04:42:28.573Z,100880.06
2023-03-16T04:47:50.576Z,100886.09
2023-03-16T04:53:12.392Z,100890.50
2023-03-16T04:58:34.270Z,100897.41
2023-03-16T05:03:57.923Z,100875.53
2023-03-16T05:09:21.131Z,100896.63
2023-03-16T05:14:43.014Z,100900.13
2023-03-16T05:20:05.282Z,100895.19
2023-03-16T05:25:27.362Z,100887.59
2023-03-16T05:30:49.249Z,100890.00
2023-03-16T05:36:11.448Z,100884.59
2023-03-16T05:41:33.318Z,100882.84
2023-03-16T05:46:55.330Z,100873.28
2023-03-16T05:52:17.209Z,100875.56
2023-03-16T05:57:39.075Z,100882.34
2023-03-16T06:03:01.045Z,100877.91
2023-03-16T06:08:23.068Z,100889.25
2023-03-16T06:13:44.973Z,100889.69
2023-03-16T06:19:06.867Z,100903.41
2023-03-16T06:24:28.827Z,100902.63
2023-03-16T06:29:50.730Z,100911.31
2023-03-16T06:35:13.141Z,100888.03
2023-03-16T06:40:34.986Z,100895.78
2023-03-16T06:45:57.012Z,100905.06
2023-03-16T06:51:19.009Z,100908.63
2023-03-16T06:56:40.922Z,100912.00
2023-03-16T07:02:02.970Z,100919.47
2023-03-16T07:07:24.836Z,100919.63
2023-03-16T07:12:46.722Z,100929.03
2023-03-16T07:18:08.602Z,100928.28
2023-03-16T07:23:30.424Z,100928.13
2023-03-16T07:28:52.294Z,100926.72
2023-03-16T07:34:14.196Z,100927.13
2023-03-16T07:39:36.631Z,100941.72
2023-03-16T07:44:58.556Z,100937.75
2023-03-16T07:50:20.493Z,100941.50
2023-03-16T07:55:43.115Z,100946.75
2023-03-16T08:01:05.151Z,100948.88
2023-03-16T08:06:28.282Z,100951.88
2023-03-16T08:11:50.163Z,100942.97
2023-03-16T08:17:12.191Z,100952.00
2023-03-16T08:22:34.000Z,100954.41
2023-03-16T08:27:55.832Z,100956.94
2023-03-16T08:33:19.555Z,100962.94
2023-03-16T08:38:44.147Z,100960.75
2023-03-16T08:44:07.293Z,100974.88
2023-03-16T08:49:30.149Z,100974.69
2023-03-16T08:55:02.536Z,100967.69
2023-03-16T09:00:25.236Z,100977.22
2023-03-16T09:05:47.328Z,100996.25
2023-03-16T09:11:12.628Z,100989.25
2023-03-16T09:16:34.510Z,100983.19
2023-03-16T09:21:56.442Z,100983.47
2023-03-16T09:27:19.603Z,100984.97
2023-03-16T09:32:41.692Z,100983.44
2023-03-16T09:38:05.971Z,100980.47
2023-03-16T09:43:40.899Z,101000.69
2023-03-16T09:49:02.911Z,100990.56
2023-03-16T09:55:07.324Z,100994.06
2023-03-16T10:00:41.138Z,101008.50
2023-03-16T10:06:08.994Z,101010.81
2023-03-16T10:11:39.668Z,101024.75
2023-03-16T10:17:09.731Z,101030.06
2023-03-16T10:22:34.809Z,101027.19
2023-03-16T10:27:56.919Z,101017.13
2023-03-16T10:33:27.609Z,101024.56
2023-03-16T10:39:04.461Z,101011.97
2023-03-16T10:44:28.897Z,101025.13
2023-03-16T10:49:51.242Z,101027.34
2023-03-16T10:55:31.868Z,101026.84
2023-03-16T11:00:53.822Z,101032.00
2023-03-16T11:06:21.578Z,101028.22
2023-03-16T11:11:47.766Z,101029.75
2023-03-16T11:17:17.894Z,101027.34
2023-03-16T11:22:41.377Z,101005.03
2023-03-16T11:28:06.025Z,100994.94
2023-03-16T11:39:21.332Z,101016.59
2023-03-16T11:45:08.842Z,101015.53
2023-03-16T11:50:30.622Z,101030.16
2023-03-16T11:56:20.212Z,101035.38
2023-03-16T12:02:01.611Z,101014.19
2023-03-16T12:07:42.035Z,101034.91
2023-03-16T12:13:06.865Z,101033.22
2023-03-16T12:18:50.512Z,101031.31
2023-03-16T12:24:16.670Z,101048.44
2023-03-16T12:29:51.762Z,101049.31
2023-03-16T12:35:19.589Z,101044.22
2023-03-16T12:40:53.250Z,101043.34
2023-03-16T12:46:22.577Z,101039.28
2023-03-16T12:51:44.523Z,101051.25
2023-03-16T12:57:09.404Z,101043.28
2023-03-16T13:02:34.661Z,101054.56
2023-03-16T13:08:13.176Z,101056.06
2023-03-16T13:13:35.796Z,101053.34
2023-03-16T13:18:58.277Z,101064.44
2023-03-16T13:24:20.156Z,101060.81
2023-03-16T13:29:53.342Z,101063.16
2023-03-16T13:35:17.705Z,101067.94
2023-03-16T13:40:49.414Z,101059.09
2023-03-16T13:46:16.153Z,101063.19
2023-03-16T13:51:38.546Z,101048.69
2023-03-16T13:57:03.771Z,101059.03
2023-03-16T14:02:25.613Z,101063.81
2023-03-16T14:07:49.313Z,101055.94
2023-03-16T14:13:29.139Z,101061.41
2023-03-16T14:19:05.890Z,101071.81
2023-03-16T14:24:35.174Z,101071.09
2023-03-16T14:30:01.411Z,101064.88
2023-03-16T14:35:30.267Z,101068.31
2023-03-16T14:41:15.081Z,101059.28
2023-03-16T14:46:40.898Z,101065.34
2023-03-16T14:52:14.956Z,101073.38
2023-03-16T14:57:36.839Z,101067.19
2023-03-16T15:03:07.749Z,101075.13
2023-03-16T15:08:33.309Z,101088.72
2023-03-16T15:13:55.234Z,101088.06
2023-03-16T15:19:17.042Z,101086.41
2023-03-16T15:24:39.632Z,101091.53
2023-03-16T15:30:01.542Z,101095.00
2023-03-16T15:35:23.701Z,101095.91
2023-03-16T15:40:46.340Z,101099.28
2023-03-16T15:46:09.813Z,101097.53
2023-03-16T15:51:32.450Z,101106.09
2023-03-16T15:56:54.930Z,101113.94
2023-03-16T16:02:28.368Z,101107.91
2023-03-16T16:07:50.209Z,101123.41
2023-03-16T16:13:37.394Z,101128.63
2023-03-16T16:19:03.308Z,101135.53
2023-03-16T16:24:25.289Z,101138.09
2023-03-16T16:29:47.234Z,101151.66
2023-03-16T16:35:17.186Z,101152.50
2023-03-16T16:40:40.695Z,101158.41
2023-03-16T16:46:06.714Z,101163.41
2023-03-16T16:51:29.411Z,101169.34
2023-03-16T16:56:54.034Z,101176.97
2023-03-16T17:02:45.789Z,101186.25
2023-03-16T17:08:11.221Z,101187.91
2023-03-16T17:13:39.075Z,101194.63
2023-03-16T17:19:01.033Z,101198.81
2023-03-16T17:24:23.368Z,101191.03
2023-03-16T17:29:45.191Z,101208.03
2023-03-16T17:35:16.236Z,101208.72
2023-03-16T17:40:38.108Z,101207.75
2023-03-16T17:46:03.056Z,101229.00
2023-03-16T17:51:25.072Z,101234.03
2023-03-16T17:56:50.521Z,101226.28
2023-03-16T18:02:37.138Z,101229.63
2023-03-16T18:08:01.973Z,101226.88
2023-03-16T18:13:29.695Z,101235.44
2023-03-16T18:18:53.436Z,101249.84
2023-03-16T18:24:15.673Z,101251.53
2023-03-16T18:29:37.954Z,101259.16
2023-03-16T18:35:00.563Z,101268.47
2023-03-16T18:40:24.425Z,101266.94
2023-03-16T18:45:47.204Z,101257.69
2023-03-16T18:51:13.342Z,101263.91
2023-03-16T18:56:35.266Z,101265.72
2023-03-16T19:01:57.951Z,101285.50
2023-03-16T19:07:33.662Z,101283.03
2023-03-16T19:12:56.181Z,101269.28
2023-03-16T19:18:18.385Z,101282.88
2023-03-16T19:23:40.427Z,101282.78
2023-03-16T19:29:03.482Z,101293.78
2023-03-16T19:34:25.644Z,101303.91
2023-03-16T19:39:47.490Z,101311.41
2023-03-16T19:45:18.468Z,101308.78
2023-03-16T19:50:40.658Z,101313.88
2023-03-16T19:56:02.611Z,101328.53
2023-03-16T20:01:33.000Z,101313.19
2023-03-16T20:06:55.100Z,101322.66
2023-03-16T20:12:27.879Z,101321.03
2023-03-16T20:17:50.566Z,101321.16
2023-03-16T20:23:25.024Z,101320.34
2023-03-16T20:28:47.976Z,101329.03
2023-03-16T20:34:30.829Z,101325.69
2023-03-16T20:39:54.020Z,101317.22
2023-03-16T20:45:21.122Z,101320.63
2023-03-16T20:50:43.223Z,101317.06
2023-03-16T20:56:05.482Z,101327.34
2023-03-16T21:01:27.357Z,101336.75
2023-03-16T21:06:49.382Z,101332.50
2023-03-16T21:12:23.481Z,101341.56
2023-03-16T21:17:45.535Z,101344.25
2023-03-16T21:23:15.862Z,101341.66
2023-03-16T21:28:37.738Z,101349.03
2023-03-16T21:34:00.334Z,101342.25
2023-03-16T21:39:22.687Z,101334.66
2023-03-16T21:44:44.926Z,101333.06
2023-03-16T21:50:14.294Z,101343.38
2023-03-16T21:55:36.187Z,101349.28
2023-03-16T22:00:58.446Z,101333.88
2023-03-16T22:06:22.464Z,101344.22
2023-03-16T22:11:44.428Z,101335.59
2023-03-16T22:17:15.457Z,101329.56
2023-03-16T22:22:37.334Z,101341.41
2023-03-16T22:27:59.194Z,101357.38
2023-03-16T22:33:26.108Z,101341.94
2023-03-16T22:38:59.676Z,101345.28
2023-03-16T22:44:23.000Z,101356.16
2023-03-16T22:49:44.906Z,101350.09
2023-03-16T22:55:07.942Z,101347.31
2023-03-16T23:00:30.378Z,101352.22
2023-03-16T23:05:52.702Z,101365.56
2023-03-16T23:11:20.474Z,101378.88
2023-03-16T23:16:43.750Z,101367.44
2023-03-16T23:22:07.174Z,101368.91
2023-03-16T23:27:29.069Z,101381.69
2023-03-16T23:32:52.428Z,101367.84
2023-03-16T23:38:14.371Z,101386.31
2023-03-16T23:43:36.421Z,101388.69
2023-03-16T23:49:02.829Z,101389.38
2023-03-16T23:54:25.950Z,101397.31
2023-03-16T23:59:47.797Z,101404.34
